This is the latest recevied weather packets stored in our database for station/object W5SDC. If no packets are shown the sender has not sent any weather packets the latest 10 day(s).
| Time | Temp. | Humidity | Pressure | Rain* | Wind** | Luminosity | Snow |
|---|---|---|---|---|---|---|---|
| 1776975622 | 26.67° C | 76% | 1010.1 hPa | 0 mm | - | - | - |
| 1776972633 | 26.67° C | 76% | 1010.7 hPa | 0 mm | - | - | - |
| 1776970817 | 26.11° C | 77% | 1011.3 hPa | 0 mm | - | - | - |
| 1776970524 | 26.67° C | 78% | 1011.3 hPa | 0 mm | - | - | - |
| 1776969352 | 25.56° C | 78% | 1011.7 hPa | 0 mm | - | - | - |
| 1776968433 | 25° C | 80% | 1011.7 hPa | 0 mm | - | - | - |
| 1776968161 | 25.56° C | 79% | 1011.9 hPa | 0 mm | - | - | - |
| 1776967827 | 25.56° C | 80% | 1012.2 hPa | 0 mm | - | - | - |
| 1776965131 | 24.44° C | 82% | 1012.9 hPa | 0 mm | - | - | - |
| 1776963316 | 23.89° C | 85% | 1013.1 hPa | 0 mm | - | - | - |
| 1776963022 | 23.89° C | 85% | 1013.2 hPa | 0 mm | - | - | - |
| 1776962729 | 23.89° C | 86% | 1013.2 hPa | 0 mm | - | - | - |
| 1776962123 | 23.89° C | 87% | 1013.3 hPa | 0 mm | - | - | - |
| 1776958842 | 22.22° C | 92% | 1013.7 hPa | 0 mm | - | - | - |
| 1776954622 | 21.11° C | 95% | 1013.7 hPa | 0 mm | - | - | - |
| 1776952220 | 21.11° C | 95% | 1013.3 hPa | 0 mm | - | - | - |
| 1776951632 | 21.11° C | 96% | 1013.3 hPa | 0 mm | - | - | - |
| 1776950422 | 20.56° C | 97% | 1013.2 hPa | 0 mm | - | - | - |
| 1776949817 | 20.56° C | 96% | 1013.2 hPa | 0 mm | - | - | - |
| 1776949523 | 20.56° C | 96% | 1013.2 hPa | 0 mm | - | - | - |
| 1776947121 | 20.56° C | 97% | 1012.9 hPa | 0 mm | - | - | - |
| 1776946242 | 20.56° C | 98% | 1012.7 hPa | 0 mm | - | - | - |
| 1776942627 | 20.56° C | 97% | 1012.4 hPa | 0 mm | - | - | - |
| 1776941123 | 20.56° C | 97% | 1012.2 hPa | 0 mm | - | - | - |
| 1776936923 | 20.56° C | 97% | 1012.4 hPa | 0 mm | - | - | - |
* Rain latest hour (hover to see other rain measurements)
** Current wind speed in m/s (hover to see current wind gust speed)